Time;durP1;ratioP1;P1;durP2;ratioP2;P2;SDS_P1;SDS_P2;PMS_P1;PMS_P2;Temp;Humidity;BMP_temperature;BMP_pressure;BME280_temperature;BME280_humidity;BME280_pressure;Samples;Min_cycle;Max_cycle;Signal;HPM_P1;HPM_P2
2024/02/05 00:02:09;;;;;;;0.50;0.30;;;8.70;1.00;;;;;;5111185;28;20488;-56
2024/02/05 00:04:36;;;;;;;0.68;0.30;;;8.60;1.00;;;;;;5114830;28;20424;-57
2024/02/05 00:07:03;;;;;;;0.50;0.30;;;8.60;1.00;;;;;;5122339;28;20416;-58
2024/02/05 00:09:31;;;;;;;0.50;0.30;;;8.50;1.00;;;;;;5125814;28;20462;-57
2024/02/05 00:11:58;;;;;;;0.68;0.30;;;8.50;1.00;;;;;;5133123;28;20513;-58
2024/02/05 00:14:25;;;;;;;0.50;0.30;;;8.60;1.00;;;;;;5120972;28;20800;-58
2024/02/05 00:16:52;;;;;;;0.60;0.30;;;8.60;1.00;;;;;;5110033;28;20439;-57
2024/02/05 00:19:19;;;;;;;0.50;0.30;;;8.60;1.00;;;;;;5123646;28;20872;-55
2024/02/05 00:21:46;;;;;;;0.50;0.20;;;8.70;1.00;;;;;;5133803;28;20929;-57
2024/02/05 00:24:13;;;;;;;0.30;0.10;;;8.70;1.00;;;;;;5133552;28;20422;-58
2024/02/05 00:26:42;;;;;;;0.40;0.10;;;8.90;1.00;;;;;;5133357;27;20511;-61
2024/02/05 00:29:09;;;;;;;0.30;0.10;;;9.00;1.00;;;;;;5133334;27;20816;-61
2024/02/05 00:31:37;;;;;;;0.30;0.10;;;8.90;1.00;;;;;;5122732;27;20535;-61
2024/02/05 00:34:04;;;;;;;0.50;0.10;;;8.90;1.00;;;;;;5135489;27;20487;-58
2024/02/05 00:36:30;;;;;;;0.30;0.10;;;9.00;1.00;;;;;;5121811;27;20894;-60
2024/02/05 00:38:57;;;;;;;0.30;0.10;;;9.10;1.00;;;;;;5116976;28;20976;-61
2024/02/05 00:41:24;;;;;;;0.30;0.10;;;9.10;1.00;;;;;;5116012;28;20421;-61
2024/02/05 00:43:53;;;;;;;0.40;0.10;;;9.00;1.00;;;;;;5115593;28;20416;-61
2024/02/05 00:46:23;;;;;;;0.30;0.10;;;8.90;1.00;;;;;;5115735;28;20481;-61
2024/02/05 00:48:50;;;;;;;0.30;0.10;;;8.80;1.00;;;;;;5120209;27;20427;-58
2024/02/05 00:51:17;;;;;;;0.30;0.10;;;8.90;1.00;;;;;;5136760;27;20498;-59
2024/02/05 00:53:44;;;;;;;0.30;0.10;;;9.10;1.00;;;;;;5135855;27;20403;-59
2024/02/05 00:56:11;;;;;;;0.30;0.10;;;9.20;1.00;;;;;;5136442;27;20879;-59
2024/02/05 00:58:38;;;;;;;0.50;0.10;;;9.30;1.00;;;;;;5137553;27;20440;-61
2024/02/05 01:01:07;;;;;;;0.32;0.10;;;9.30;1.00;;;;;;5132949;27;20437;-59
2024/02/05 01:03:34;;;;;;;0.30;0.10;;;9.40;1.00;;;;;;5117577;27;20441;-60
2024/02/05 01:06:01;;;;;;;0.38;0.10;;;9.50;1.00;;;;;;5116431;28;20427;-59
2024/02/05 01:08:28;;;;;;;0.30;0.10;;;9.60;1.00;;;;;;5121010;27;20418;-59
2024/02/05 01:10:56;;;;;;;0.30;0.10;;;9.60;99.90;;;;;;5136144;27;20430;-59
2024/02/05 01:13:23;;;;;;;0.30;0.10;;;9.60;99.90;;;;;;5123979;27;20436;-59
2024/02/05 01:15:50;;;;;;;0.30;0.10;;;9.60;99.90;;;;;;5116150;28;20976;-60
2024/02/05 01:18:19;;;;;;;0.30;0.10;;;9.70;99.90;;;;;;5115085;28;20485;-60
2024/02/05 01:20:46;;;;;;;0.30;0.10;;;9.80;99.90;;;;;;5114918;28;20413;-60
2024/02/05 01:23:13;;;;;;;0.50;0.10;;;9.70;98.80;;;;;;5116790;27;20673;-59
2024/02/05 01:25:40;;;;;;;0.30;0.10;;;9.60;99.90;;;;;;5116384;28;20871;-60
2024/02/05 01:28:07;;;;;;;0.30;0.10;;;9.70;91.80;;;;;;5125855;27;20431;-59
2024/02/05 01:30:34;;;;;;;0.40;0.10;;;9.70;99.90;;;;;;5134053;27;20414;-59
2024/02/05 01:33:02;;;;;;;0.30;0.10;;;9.60;99.90;;;;;;5136335;27;20433;-59
2024/02/05 01:35:30;;;;;;;0.40;0.10;;;9.50;99.90;;;;;;5136379;27;20700;-59
2024/02/05 01:37:57;;;;;;;0.30;0.10;;;9.40;99.90;;;;;;5118697;27;20434;-58
2024/02/05 01:40:24;;;;;;;0.30;0.10;;;9.50;99.90;;;;;;5121006;27;20433;-58
2024/02/05 01:42:51;;;;;;;0.30;0.10;;;9.60;99.90;;;;;;5135979;27;20812;-64
2024/02/05 01:45:18;;;;;;;0.30;0.10;;;9.60;99.90;;;;;;5136108;27;20434;-59
2024/02/05 01:47:45;;;;;;;0.30;0.10;;;9.80;99.90;;;;;;5135927;27;20439;-60
2024/02/05 01:50:15;;;;;;;0.40;0.10;;;9.80;1.00;;;;;;5134189;27;20467;-59
2024/02/05 01:52:47;;;;;;;0.30;0.10;;;9.60;1.00;;;;;;5125345;27;20418;-58
2024/02/05 01:55:16;;;;;;;0.40;0.10;;;9.50;99.90;;;;;;5114989;28;20420;-59
2024/02/05 01:57:44;;;;;;;0.40;0.10;;;9.60;99.90;;;;;;5113736;28;20933;-59
2024/02/05 02:00:14;;;;;;;0.30;0.10;;;9.40;99.90;;;;;;5114947;28;20505;-60
2024/02/05 02:02:42;;;;;;;0.30;0.10;;;9.30;99.90;;;;;;5115004;27;20498;-59
2024/02/05 02:05:10;;;;;;;0.30;0.10;;;9.20;99.90;;;;;;5113457;28;20412;-59
2024/02/05 02:07:37;;;;;;;0.30;0.10;;;9.20;99.90;;;;;;5114837;28;20444;-59
2024/02/05 02:10:07;;;;;;;0.33;0.10;;;9.50;99.90;;;;;;5115017;28;20691;-59
2024/02/05 02:12:34;;;;;;;0.60;0.10;;;9.70;99.90;;;;;;5120622;27;20427;-60
2024/02/05 02:15:01;;;;;;;0.30;0.10;;;9.70;1.00;;;;;;5128438;27;20721;-59
2024/02/05 02:17:32;;;;;;;0.30;0.10;;;9.40;99.90;;;;;;5134099;27;20888;-59
2024/02/05 02:19:59;;;;;;;0.38;0.10;;;9.50;99.90;;;;;;5134151;27;20503;-59
2024/02/05 02:22:34;;;;;;;0.40;0.20;;;9.40;99.90;;;;;;5127409;27;20430;-59
2024/02/05 02:25:02;;;;;;;0.30;0.10;;;9.30;99.90;;;;;;5132088;27;20761;-59
2024/02/05 02:27:30;;;;;;;0.30;0.10;;;9.50;99.90;;;;;;5134781;27;20618;-59
2024/02/05 02:29:58;;;;;;;0.30;0.10;;;9.30;99.90;;;;;;5135782;27;20422;-59
2024/02/05 02:32:33;;;;;;;0.40;0.10;;;9.20;1.00;;;;;;5135343;27;20406;-60
2024/02/05 02:35:06;;;;;;;0.80;0.20;;;9.20;1.00;;;;;;5134175;27;20796;-59
2024/02/05 02:37:39;;;;;;;0.30;0.10;;;9.30;99.90;;;;;;5116177;27;20443;-60
2024/02/05 02:40:14;;;;;;;0.35;0.10;;;9.20;99.90;;;;;;5117341;27;20945;-60
2024/02/05 02:42:44;;;;;;;0.30;0.10;;;9.20;99.90;;;;;;5133728;27;20426;-60
2024/02/05 02:45:14;;;;;;;0.70;0.10;;;9.00;99.90;;;;;;5133456;27;20422;-60
2024/02/05 02:47:42;;;;;;;0.30;0.10;;;9.20;99.90;;;;;;5131180;27;20918;-59
2024/02/05 02:50:10;;;;;;;1.60;0.20;;;9.30;99.90;;;;;;5134308;27;20487;-59
2024/02/05 02:52:37;;;;;;;0.30;0.10;;;9.10;99.90;;;;;;5113780;27;20744;-59
2024/02/05 02:55:06;;;;;;;0.30;0.10;;;9.00;99.90;;;;;;5115142;28;20424;-59
2024/02/05 02:57:34;;;;;;;0.30;0.10;;;8.90;99.90;;;;;;5114803;27;20436;-59
2024/02/05 03:00:01;;;;;;;0.30;0.10;;;8.90;99.90;;;;;;5119747;27;20430;-59
2024/02/05 03:02:28;;;;;;;0.40;0.10;;;9.10;1.00;;;;;;5134272;27;20415;-59
2024/02/05 03:04:55;;;;;;;0.90;0.10;;;9.20;99.90;;;;;;5134428;27;20422;-59
2024/02/05 03:07:22;;;;;;;0.60;0.20;;;9.10;99.90;;;;;;5120493;27;21081;-59
2024/02/05 03:09:49;;;;;;;0.50;0.10;;;9.00;99.90;;;;;;5114066;28;20879;-60
2024/02/05 03:12:16;;;;;;;0.43;0.20;;;9.30;99.90;;;;;;5114039;28;20861;-59
2024/02/05 03:14:45;;;;;;;0.40;0.10;;;9.20;1.00;;;;;;5114098;28;20420;-60
2024/02/05 03:17:12;;;;;;;0.70;0.10;;;9.20;1.00;;;;;;5113378;28;20428;-59
2024/02/05 03:19:39;;;;;;;0.30;0.10;;;9.20;1.00;;;;;;5114318;28;20485;-59
2024/02/05 03:22:06;;;;;;;0.40;0.10;;;9.10;1.00;;;;;;5114355;28;20846;-59
2024/02/05 03:24:33;;;;;;;0.30;0.10;;;9.10;18.40;;;;;;5113875;28;20437;-59
2024/02/05 03:27:00;;;;;;;0.30;0.10;;;9.00;1.00;;;;;;5113459;28;20821;-60
2024/02/05 03:29:27;;;;;;;0.30;0.10;;;9.10;1.00;;;;;;5114249;28;20428;-59
2024/02/05 03:31:55;;;;;;;0.40;0.10;;;9.20;1.00;;;;;;5114215;28;20435;-59
2024/02/05 03:34:22;;;;;;;0.60;0.10;;;9.10;1.00;;;;;;5114849;28;20432;-59
2024/02/05 03:36:49;;;;;;;0.30;0.10;;;9.00;1.00;;;;;;5120756;28;20434;-59
2024/02/05 03:39:16;;;;;;;0.30;0.10;;;9.10;15.60;;;;;;5125335;28;21008;-59
2024/02/05 03:41:43;;;;;;;0.40;0.10;;;9.20;93.90;;;;;;5114598;28;20817;-59
2024/02/05 03:44:10;;;;;;;0.50;0.20;;;9.10;1.00;;;;;;5113782;28;20721;-59
2024/02/05 03:46:38;;;;;;;0.30;0.10;;;9.10;1.00;;;;;;5112896;28;20481;-59
2024/02/05 03:49:06;;;;;;;0.30;0.10;;;9.20;1.00;;;;;;5112717;28;20838;-59
2024/02/05 03:51:33;;;;;;;0.30;0.10;;;9.00;1.00;;;;;;5114510;28;20497;-59
2024/02/05 03:54:01;;;;;;;0.50;0.10;;;8.90;1.00;;;;;;5109231;28;20661;-59
2024/02/05 03:56:28;;;;;;;0.50;0.10;;;8.90;99.90;;;;;;5110132;28;20408;-59
2024/02/05 03:58:55;;;;;;;0.30;0.10;;;8.90;99.90;;;;;;5113458;28;20449;-59
2024/02/05 04:01:22;;;;;;;0.30;0.10;;;8.90;99.90;;;;;;5114357;28;20523;-59
2024/02/05 04:03:49;;;;;;;0.90;0.10;;;9.10;1.00;;;;;;5138120;27;20418;-59
2024/02/05 04:06:18;;;;;;;0.30;0.10;;;9.10;1.00;;;;;;5132829;27;20489;-59
2024/02/05 04:08:45;;;;;;;0.30;0.10;;;9.00;1.00;;;;;;5116347;28;20419;-59
2024/02/05 04:11:12;;;;;;;0.30;0.10;;;9.00;11.50;;;;;;5117044;28;20416;-60
2024/02/05 04:13:39;;;;;;;0.80;0.10;;;9.10;99.90;;;;;;5115892;28;20430;-60
2024/02/05 04:16:07;;;;;;;0.30;0.10;;;9.00;1.00;;;;;;5117216;28;20472;-59
2024/02/05 04:18:34;;;;;;;0.40;0.10;;;9.00;1.00;;;;;;5116610;28;20538;-59
2024/02/05 04:21:03;;;;;;;0.30;0.10;;;9.10;1.00;;;;;;5116090;28;20447;-59
2024/02/05 04:23:31;;;;;;;0.30;0.10;;;9.20;1.00;;;;;;5116101;28;20452;-59
2024/02/05 04:26:00;;;;;;;0.30;0.10;;;9.10;1.00;;;;;;5116100;28;20463;-59
2024/02/05 04:28:31;;;;;;;0.30;0.10;;;9.10;1.00;;;;;;5116349;28;20821;-60
2024/02/05 04:30:58;;;;;;;0.40;0.10;;;9.10;1.00;;;;;;5116172;28;20422;-59
2024/02/05 04:33:26;;;;;;;0.30;0.10;;;9.00;99.90;;;;;;5116282;28;20424;-59
2024/02/05 04:35:53;;;;;;;0.30;0.10;;;9.00;14.40;;;;;;5116429;28;20473;-59
2024/02/05 04:38:20;;;;;;;0.30;0.10;;;9.00;99.90;;;;;;5116656;28;20530;-59
2024/02/05 04:40:48;;;;;;;0.40;0.10;;;9.00;99.90;;;;;;5116644;28;20423;-59
2024/02/05 04:43:15;;;;;;;0.30;0.10;;;9.00;1.00;;;;;;5116615;28;20484;-59
2024/02/05 04:45:42;;;;;;;0.30;0.10;;;9.10;99.90;;;;;;5116111;28;20728;-59
2024/02/05 04:48:09;;;;;;;0.57;0.10;;;9.10;1.00;;;;;;5114483;28;20431;-59
2024/02/05 04:50:36;;;;;;;0.30;0.10;;;9.10;34.60;;;;;;5115687;28;20465;-59
2024/02/05 04:53:03;;;;;;;0.30;0.10;;;9.10;1.00;;;;;;5115838;28;20424;-59
2024/02/05 04:55:30;;;;;;;0.50;0.10;;;9.10;1.00;;;;;;5115618;28;20416;-59
2024/02/05 04:57:59;;;;;;;0.30;0.10;;;9.00;1.00;;;;;;5116001;28;20428;-58
2024/02/05 05:00:26;;;;;;;0.38;0.10;;;9.00;99.90;;;;;;5115257;28;20493;-59
2024/02/05 05:02:52;;;;;;;0.63;0.20;;;9.00;32.90;;;;;;5115680;28;20412;-59
2024/02/05 05:05:19;;;;;;;0.40;0.20;;;8.90;99.90;;;;;;5115483;28;20408;-59
2024/02/05 05:07:46;;;;;;;0.30;0.10;;;8.90;99.90;;;;;;5115159;28;20469;-59
2024/02/05 05:10:14;;;;;;;0.80;0.20;;;8.90;99.90;;;;;;5114555;27;20481;-58
2024/02/05 05:12:40;;;;;;;0.38;0.15;;;8.80;99.90;;;;;;5095489;28;20440;-58
2024/02/05 05:15:10;;;;;;;0.30;0.20;;;8.80;99.90;;;;;;5112477;28;20428;-58
2024/02/05 05:17:37;;;;;;;0.38;0.20;;;8.70;99.90;;;;;;5115168;28;20464;-59
2024/02/05 05:20:05;;;;;;;1.50;0.10;;;8.60;1.00;;;;;;5116141;28;20474;-59
2024/02/05 05:22:32;;;;;;;0.40;0.20;;;8.50;1.00;;;;;;5115088;28;20751;-59
2024/02/05 05:24:59;;;;;;;0.40;0.20;;;8.50;1.00;;;;;;5107096;28;20424;-59
2024/02/05 05:27:26;;;;;;;0.32;0.20;;;8.40;1.00;;;;;;5115739;28;20485;-59
2024/02/05 05:29:53;;;;;;;0.32;0.10;;;8.40;1.00;;;;;;5115397;28;20423;-59
2024/02/05 05:32:21;;;;;;;0.70;0.20;;;8.50;1.00;;;;;;5115439;28;20417;-59
2024/02/05 05:34:48;;;;;;;0.30;0.20;;;8.50;1.00;;;;;;5115287;28;20420;-62
2024/02/05 05:37:15;;;;;;;1.00;0.10;;;8.50;1.00;;;;;;5116316;28;20443;-59
2024/02/05 05:39:42;;;;;;;0.40;0.10;;;8.50;1.00;;;;;;5114857;28;20518;-59
2024/02/05 05:42:15;;;;;;;0.40;0.20;;;8.50;1.00;;;;;;5114702;28;20440;-59
2024/02/05 05:44:45;;;;;;;0.50;0.20;;;8.40;1.00;;;;;;5115465;28;20412;-59
2024/02/05 05:47:12;;;;;;;1.10;0.10;;;8.40;1.00;;;;;;5114324;28;20422;-59
2024/02/05 05:49:40;;;;;;;0.30;0.10;;;8.40;1.00;;;;;;5114960;28;20480;-59
2024/02/05 05:52:07;;;;;;;0.50;0.20;;;8.40;1.00;;;;;;5114495;28;20432;-59
2024/02/05 05:54:34;;;;;;;0.50;0.20;;;8.40;1.00;;;;;;5114941;28;20419;-59
2024/02/05 05:57:01;;;;;;;0.40;0.20;;;8.40;1.00;;;;;;5114899;28;20488;-59
2024/02/05 05:59:28;;;;;;;0.30;0.10;;;8.40;1.00;;;;;;5114795;28;20473;-59
2024/02/05 06:01:56;;;;;;;0.30;0.10;;;8.40;1.00;;;;;;5114640;28;20477;-59
2024/02/05 06:04:23;;;;;;;0.30;0.10;;;8.40;1.00;;;;;;5112234;28;20424;-59
2024/02/05 06:06:52;;;;;;;0.30;0.10;;;8.30;1.00;;;;;;5107850;28;20425;-58
2024/02/05 06:09:20;;;;;;;0.40;0.10;;;8.40;1.00;;;;;;5113736;28;20497;-59
2024/02/05 06:11:47;;;;;;;0.40;0.20;;;8.40;1.00;;;;;;5115289;28;20511;-59
2024/02/05 06:14:14;;;;;;;0.40;0.10;;;8.40;99.90;;;;;;5121566;27;20407;-59
2024/02/05 06:16:41;;;;;;;0.30;0.10;;;8.30;99.90;;;;;;5134892;27;20432;-59
2024/02/05 06:19:08;;;;;;;0.40;0.20;;;8.30;1.00;;;;;;5133494;27;20430;-59
2024/02/05 06:21:35;;;;;;;0.30;0.10;;;8.30;1.00;;;;;;5134402;27;20650;-59
2024/02/05 06:24:03;;;;;;;0.30;0.10;;;8.40;1.00;;;;;;5129600;27;20428;-59
2024/02/05 06:26:30;;;;;;;0.30;0.10;;;8.50;1.00;;;;;;5130424;27;20812;-60
2024/02/05 06:28:57;;;;;;;0.30;0.10;;;8.50;99.90;;;;;;5133409;27;20426;-60
2024/02/05 06:31:24;;;;;;;0.30;0.10;;;8.50;99.90;;;;;;5132246;27;20422;-59
2024/02/05 06:33:51;;;;;;;0.35;0.17;;;8.50;99.90;;;;;;5132350;27;20782;-60
2024/02/05 06:36:18;;;;;;;0.40;0.10;;;8.50;99.90;;;;;;5129945;27;20879;-60
2024/02/05 06:38:45;;;;;;;0.30;0.10;;;8.40;99.90;;;;;;5112582;28;20872;-59
2024/02/05 06:41:14;;;;;;;0.40;0.10;;;8.40;99.90;;;;;;5113213;28;20759;-60
2024/02/05 06:43:41;;;;;;;0.45;0.20;;;8.30;99.90;;;;;;5112796;28;20485;-59
2024/02/05 06:46:08;;;;;;;1.10;0.20;;;8.30;99.90;;;;;;5111499;28;20469;-60
2024/02/05 06:48:35;;;;;;;0.50;0.13;;;8.30;99.90;;;;;;5112876;28;20442;-59
2024/02/05 06:51:02;;;;;;;0.47;0.20;;;8.20;1.00;;;;;;5112825;28;20510;-59
2024/02/05 06:53:29;;;;;;;0.40;0.20;;;8.20;1.00;;;;;;5111130;28;21005;-59
2024/02/05 06:55:56;;;;;;;0.50;0.20;;;8.20;1.00;;;;;;5112616;28;20794;-59
2024/02/05 06:58:24;;;;;;;0.30;0.17;;;8.20;1.00;;;;;;5112924;28;20822;-56
2024/02/05 07:00:51;;;;;;;0.50;0.20;;;8.50;1.00;;;;;;5112552;28;20477;-58
2024/02/05 07:03:19;;;;;;;0.30;0.20;;;8.50;99.90;;;;;;5112652;28;20489;-58
2024/02/05 07:05:46;;;;;;;0.40;0.20;;;8.40;99.90;;;;;;5110238;28;20452;-58
2024/02/05 07:08:13;;;;;;;0.40;0.10;;;8.40;99.90;;;;;;5109382;28;20412;-58
2024/02/05 07:10:43;;;;;;;0.30;0.10;;;8.50;99.90;;;;;;5109298;28;20458;-59
2024/02/05 07:13:10;;;;;;;0.40;0.20;;;8.50;99.90;;;;;;5112077;28;20885;-58
2024/02/05 07:15:38;;;;;;;0.40;0.10;;;8.60;99.90;;;;;;5110994;28;20464;-60
2024/02/05 07:18:05;;;;;;;0.40;0.10;;;8.60;99.90;;;;;;5110936;28;20493;-60
2024/02/05 07:20:32;;;;;;;0.43;0.20;;;8.70;99.90;;;;;;5112041;28;20496;-59
2024/02/05 07:22:59;;;;;;;1.20;0.20;;;8.60;1.00;;;;;;5110337;28;20423;-59
2024/02/05 07:25:26;;;;;;;0.30;0.10;;;8.70;1.00;;;;;;5110946;28;20424;-59
2024/02/05 07:27:53;;;;;;;0.60;0.20;;;8.70;1.00;;;;;;5109797;28;20761;-59
2024/02/05 07:30:21;;;;;;;0.40;0.17;;;8.60;1.00;;;;;;5111546;28;20424;-59
2024/02/05 07:32:50;;;;;;;0.43;0.10;;;8.60;1.00;;;;;;5110765;28;20465;-60
2024/02/05 07:35:18;;;;;;;0.70;0.20;;;8.50;1.00;;;;;;5111219;28;20950;-59
2024/02/05 07:37:45;;;;;;;0.30;0.10;;;8.50;1.00;;;;;;5111680;28;20455;-60
2024/02/05 07:40:13;;;;;;;0.40;0.20;;;8.40;74.10;;;;;;5115994;28;20428;-59
2024/02/05 07:42:40;;;;;;;1.90;1.00;;;8.40;99.90;;;;;;5113913;28;20851;-59
2024/02/05 07:45:08;;;;;;;0.50;0.20;;;8.40;35.20;;;;;;5114999;28;20702;-58
2024/02/05 07:47:35;;;;;;;0.40;0.20;;;8.30;99.90;;;;;;5114179;28;20431;-59
2024/02/05 07:50:04;;;;;;;0.70;0.30;;;8.30;99.90;;;;;;5113808;28;20715;-60
2024/02/05 07:52:31;;;;;;;1.00;0.20;;;8.20;99.90;;;;;;5115987;28;20422;-60
2024/02/05 07:54:58;;;;;;;1.00;0.10;;;8.10;99.90;;;;;;5117059;28;20428;-59
2024/02/05 07:57:25;;;;;;;0.50;0.10;;;8.10;99.90;;;;;;5114145;28;20501;-59
2024/02/05 07:59:52;;;;;;;0.30;0.10;;;8.20;99.90;;;;;;5114511;28;20485;-60
2024/02/05 08:02:19;;;;;;;0.70;0.20;;;8.30;99.90;;;;;;5114581;28;20408;-59
2024/02/05 08:04:46;;;;;;;0.40;0.20;;;8.50;99.90;;;;;;5113850;28;20419;-60
2024/02/05 08:07:14;;;;;;;0.40;0.20;;;8.50;1.00;;;;;;5114355;28;20430;-60
2024/02/05 08:09:41;;;;;;;0.60;0.10;;;8.50;1.00;;;;;;5115206;28;20683;-59
2024/02/05 08:12:08;;;;;;;0.50;0.20;;;8.60;99.90;;;;;;5114499;28;20431;-60
2024/02/05 08:14:35;;;;;;;0.40;0.20;;;8.40;1.00;;;;;;5113832;28;20427;-59
2024/02/05 08:17:02;;;;;;;0.40;0.20;;;8.50;99.90;;;;;;5114073;28;20598;-59
2024/02/05 08:19:29;;;;;;;1.20;0.20;;;8.40;1.00;;;;;;5113636;28;20428;-59
2024/02/05 08:21:57;;;;;;;0.70;0.20;;;8.40;99.90;;;;;;5115197;28;20845;-59
2024/02/05 08:24:25;;;;;;;0.40;0.20;;;8.40;1.00;;;;;;5113477;28;20452;-59
2024/02/05 08:26:52;;;;;;;0.40;0.20;;;8.50;1.00;;;;;;5114136;28;20675;-61
2024/02/05 08:29:22;;;;;;;0.88;0.25;;;8.50;1.00;;;;;;5111460;28;20477;-60
2024/02/05 08:31:49;;;;;;;0.50;0.20;;;8.50;1.00;;;;;;5112569;28;20424;-60
2024/02/05 08:34:16;;;;;;;0.57;0.20;;;8.60;55.60;;;;;;5113473;28;20424;-60
2024/02/05 08:36:43;;;;;;;0.70;0.20;;;8.60;1.00;;;;;;5113729;28;20424;-61
2024/02/05 08:39:10;;;;;;;0.40;0.10;;;8.60;1.00;;;;;;5114077;28;20432;-58
2024/02/05 08:41:41;;;;;;;0.50;0.20;;;8.60;1.00;;;;;;5113920;27;20529;-61
2024/02/05 08:44:08;;;;;;;0.50;0.20;;;8.60;1.00;;;;;;5104513;28;20520;-61
2024/02/05 08:46:35;;;;;;;0.50;0.10;;;8.70;1.00;;;;;;5108422;28;20484;-61
2024/02/05 08:49:02;;;;;;;0.40;0.20;;;8.80;1.00;;;;;;5112065;28;20435;-60
2024/02/05 08:51:31;;;;;;;0.30;0.10;;;9.00;1.00;;;;;;5112787;27;20848;-61
2024/02/05 08:53:58;;;;;;;0.60;0.20;;;9.10;99.90;;;;;;5112224;28;20986;-61
2024/02/05 08:56:25;;;;;;;0.40;0.20;;;9.30;99.90;;;;;;5109950;28;21144;-60
2024/02/05 08:58:53;;;;;;;0.40;0.20;;;9.40;99.90;;;;;;5111251;28;20447;-60
2024/02/05 09:01:20;;;;;;;0.60;0.20;;;9.30;99.90;;;;;;5112149;28;20484;-60
2024/02/05 09:03:47;;;;;;;0.40;0.20;;;9.20;1.00;;;;;;5105790;28;20851;-59
2024/02/05 09:06:15;;;;;;;0.43;0.20;;;9.10;1.00;;;;;;5112750;28;20440;-62
2024/02/05 09:08:42;;;;;;;0.45;0.20;;;9.00;99.90;;;;;;5098207;28;20424;-61
2024/02/05 09:11:09;;;;;;;0.43;0.20;;;9.10;1.00;;;;;;5111694;28;20470;-61
2024/02/05 09:13:36;;;;;;;0.55;0.20;;;9.10;99.90;;;;;;5113206;28;20473;-61
2024/02/05 09:16:06;;;;;;;0.50;0.20;;;9.20;1.00;;;;;;5112876;28;20416;-60
2024/02/05 09:18:33;;;;;;;0.82;0.20;;;9.20;1.00;;;;;;5112949;28;20432;-60
2024/02/05 09:21:00;;;;;;;0.50;0.20;;;9.30;1.00;;;;;;5112775;28;20923;-61
2024/02/05 09:23:27;;;;;;;0.40;0.17;;;9.20;99.90;;;;;;5112359;28;20477;-59
2024/02/05 09:25:54;;;;;;;0.50;0.20;;;9.30;99.90;;;;;;5113421;28;20698;-60
2024/02/05 09:28:21;;;;;;;0.77;0.10;;;9.30;99.90;;;;;;5113780;28;20732;-60
2024/02/05 09:30:48;;;;;;;0.30;0.10;;;9.30;99.90;;;;;;5113167;28;20649;-60
2024/02/05 09:33:18;;;;;;;1.50;0.20;;;9.40;1.00;;;;;;5111782;28;20424;-59
2024/02/05 09:35:45;;;;;;;1.00;0.20;;;9.30;1.00;;;;;;5112336;28;20455;-59
2024/02/05 09:38:12;;;;;;;0.40;0.20;;;9.40;1.00;;;;;;5103791;28;21032;-59
2024/02/05 09:40:39;;;;;;;0.30;0.10;;;9.40;1.00;;;;;;5110110;28;20702;-59
2024/02/05 09:43:08;;;;;;;0.50;0.20;;;9.30;1.00;;;;;;5112302;28;20829;-59
2024/02/05 09:45:40;;;;;;;1.00;0.60;;;9.50;41.70;;;;;;5111096;28;20428;-59
2024/02/05 09:48:09;;;;;;;0.90;0.20;;;9.60;1.00;;;;;;5108710;28;20811;-59
2024/02/05 09:50:38;;;;;;;0.40;0.20;;;9.60;99.90;;;;;;5106588;28;20436;-59
2024/02/05 09:53:06;;;;;;;0.90;0.28;;;9.70;99.90;;;;;;5107826;28;20714;-59
2024/02/05 09:55:34;;;;;;;0.80;0.10;;;9.70;99.90;;;;;;5110232;28;20495;-59
2024/02/05 09:58:02;;;;;;;1.30;0.20;;;9.70;99.90;;;;;;5120321;27;20425;-59
2024/02/05 10:00:29;;;;;;;0.40;0.20;;;9.70;99.90;;;;;;5105918;28;20474;-59
2024/02/05 10:02:56;;;;;;;0.40;0.20;;;9.80;99.90;;;;;;5108794;28;20583;-59
2024/02/05 10:05:25;;;;;;;0.50;0.20;;;9.80;99.90;;;;;;5107452;28;20652;-59
2024/02/05 10:07:55;;;;;;;0.40;0.20;;;9.90;99.90;;;;;;5103973;28;20428;-59
2024/02/05 10:10:23;;;;;;;1.40;0.20;;;10.00;35.60;;;;;;5106749;28;20495;-59
2024/02/05 10:12:53;;;;;;;1.00;0.20;;;10.10;1.00;;;;;;5107984;28;20440;-59
2024/02/05 10:15:20;;;;;;;2.50;0.50;;;10.20;99.90;;;;;;5102553;28;20438;-59
2024/02/05 10:17:48;;;;;;;1.17;0.20;;;10.40;71.20;;;;;;5107203;27;20506;-59
2024/02/05 10:20:15;;;;;;;1.40;0.70;;;10.30;99.90;;;;;;5107071;28;20482;-61
2024/02/05 10:22:46;;;;;;;1.50;0.20;;;10.40;99.90;;;;;;5108112;28;20523;-59
2024/02/05 10:25:15;;;;;;;0.40;0.20;;;10.40;99.90;;;;;;5099046;28;20465;-59
2024/02/05 10:27:42;;;;;;;0.73;0.20;;;10.50;99.90;;;;;;5105006;28;20852;-59
2024/02/05 10:30:10;;;;;;;0.60;0.22;;;10.60;99.90;;;;;;5104508;28;20440;-59
2024/02/05 10:32:39;;;;;;;0.50;0.20;;;10.70;99.90;;;;;;5110010;28;20459;-59
2024/02/05 10:35:09;;;;;;;0.40;0.20;;;10.90;99.90;;;;;;5102157;27;21152;-59
2024/02/05 10:37:36;;;;;;;1.80;0.40;;;11.00;99.90;;;;;;5106599;28;20534;-59
2024/02/05 10:40:04;;;;;;;0.70;0.20;;;11.00;99.90;;;;;;5105165;28;20432;-57
2024/02/05 10:42:33;;;;;;;1.80;0.20;;;11.00;99.90;;;;;;5106250;28;20436;-58
2024/02/05 10:45:00;;;;;;;0.70;0.30;;;11.10;99.90;;;;;;5109054;28;20436;-57
2024/02/05 10:47:27;;;;;;;0.40;0.20;;;11.00;99.90;;;;;;5108024;28;20485;-58
2024/02/05 10:49:56;;;;;;;1.00;0.30;;;11.00;99.90;;;;;;5108171;28;20431;-58
2024/02/05 10:52:25;;;;;;;1.00;0.20;;;11.00;99.90;;;;;;5099698;27;21005;-58
2024/02/05 10:54:53;;;;;;;1.35;0.20;;;11.00;99.90;;;;;;5120150;27;20994;-58
2024/02/05 10:57:23;;;;;;;0.80;0.30;;;11.00;99.90;;;;;;5108276;28;20659;-57
2024/02/05 10:59:51;;;;;;;0.40;0.20;;;11.10;99.90;;;;;;5107986;28;20435;-57
2024/02/05 11:02:25;;;;;;;1.10;0.20;;;11.20;99.90;;;;;;5109985;28;20850;-59
2024/02/05 11:04:55;;;;;;;1.50;0.20;;;11.20;99.90;;;;;;5108640;28;20444;-58
2024/02/05 11:07:25;;;;;;;0.95;0.20;;;11.40;99.90;;;;;;5110951;28;20424;-58
2024/02/05 11:09:53;;;;;;;1.20;0.30;;;11.30;99.90;;;;;;5106702;27;20439;-58
2024/02/05 11:12:28;;;;;;;1.60;0.20;;;11.30;99.90;;;;;;5108901;28;20830;-57
2024/02/05 11:15:04;;;;;;;1.58;0.20;;;11.20;99.90;;;;;;5109074;28;20497;-59
2024/02/05 11:17:32;;;;;;;1.70;0.20;;;11.30;99.90;;;;;;5104491;28;20534;-60
2024/02/05 11:20:00;;;;;;;1.13;0.20;;;11.30;99.90;;;;;;5106025;28;20436;-60
2024/02/05 11:22:27;;;;;;;0.90;0.20;;;11.40;99.90;;;;;;5110264;28;20443;-60
2024/02/05 11:24:54;;;;;;;0.50;0.20;;;11.50;99.90;;;;;;5111700;27;20783;-60
2024/02/05 11:27:21;;;;;;;0.70;0.30;;;11.40;99.90;;;;;;5125000;27;20692;-60
2024/02/05 11:29:50;;;;;;;1.40;0.30;;;11.40;99.90;;;;;;5113093;27;20481;-60
2024/02/05 11:32:29;;;;;;;0.70;0.20;;;11.30;99.90;;;;;;5107790;28;20666;-60
2024/02/05 11:34:56;;;;;;;0.83;0.20;;;11.40;99.90;;;;;;5107895;28;20416;-60
2024/02/05 11:37:27;;;;;;;0.40;0.20;;;11.50;99.90;;;;;;5108495;28;20444;-60
2024/02/05 11:39:58;;;;;;;1.00;0.20;;;11.60;99.90;;;;;;5109067;28;20435;-60
2024/02/05 11:42:27;;;;;;;0.50;0.20;;;11.80;99.90;;;;;;5109224;28;20695;-59
2024/02/05 11:44:56;;;;;;;0.60;0.20;;;11.80;99.90;;;;;;5108089;28;21510;-59
2024/02/05 11:47:24;;;;;;;0.40;0.20;;;11.90;99.90;;;;;;5109431;28;20439;-59
2024/02/05 11:49:52;;;;;;;2.00;0.20;;;12.00;99.90;;;;;;5109207;28;20841;-60
2024/02/05 11:52:19;;;;;;;0.90;0.20;;;12.10;99.90;;;;;;5109914;28;20772;-59
2024/02/05 11:54:46;;;;;;;0.50;0.20;;;12.10;99.90;;;;;;5106687;28;20493;-61
2024/02/05 11:57:13;;;;;;;1.10;0.30;;;12.10;99.90;;;;;;5098844;28;20499;-61
2024/02/05 11:59:40;;;;;;;0.90;0.20;;;12.10;99.90;;;;;;5118023;28;20764;-61
2024/02/05 12:02:07;;;;;;;1.60;0.20;;;12.10;99.90;;;;;;5110491;28;20416;-60
2024/02/05 12:04:38;;;;;;;1.98;0.20;;;12.30;99.90;;;;;;5107715;28;20440;-59
2024/02/05 12:07:05;;;;;;;1.23;0.30;;;12.40;99.90;;;;;;5110637;28;20452;-59
2024/02/05 12:09:34;;;;;;;2.20;0.20;;;12.50;99.90;;;;;;5106971;28;20424;-60
2024/02/05 12:12:01;;;;;;;0.88;0.20;;;12.50;99.90;;;;;;5108165;28;20423;-61
2024/02/05 12:14:36;;;;;;;0.80;0.25;;;12.50;99.90;;;;;;5105952;28;20711;-60
2024/02/05 12:17:11;;;;;;;0.50;0.20;;;12.60;99.90;;;;;;5122223;28;20737;-60
2024/02/05 12:19:40;;;;;;;1.73;0.53;;;12.60;99.90;;;;;;5112795;28;20890;-59
2024/02/05 12:22:08;;;;;;;8.15;4.07;;;12.60;99.90;;;;;;5123390;28;20428;-59
2024/02/05 12:24:35;;;;;;;0.60;0.30;;;12.70;99.90;;;;;;5110702;28;20550;-59
2024/02/05 12:27:02;;;;;;;0.57;0.30;;;12.70;99.90;;;;;;5111944;28;20435;-59
2024/02/05 12:29:29;;;;;;;1.60;0.30;;;12.60;99.90;;;;;;5113396;28;20863;-59
2024/02/05 12:32:05;;;;;;;0.80;0.30;;;12.50;99.90;;;;;;5114593;28;20461;-58
2024/02/05 12:34:31;;;;;;;3.65;0.32;;;12.60;99.90;;;;;;5112349;28;20427;-58
2024/02/05 12:37:00;;;;;;;2.97;0.23;;;12.70;99.90;;;;;;5113847;28;20476;-58
2024/02/05 12:39:27;;;;;;;0.50;0.20;;;12.70;99.90;;;;;;5109518;28;20776;-59
2024/02/05 12:41:55;;;;;;;1.40;0.20;;;12.60;99.90;;;;;;5105916;28;20935;-59
2024/02/05 12:44:22;;;;;;;1.40;0.30;;;12.70;99.90;;;;;;5097506;28;20429;-59
2024/02/05 12:46:49;;;;;;;0.65;0.20;;;12.80;99.90;;;;;;5102345;28;20897;-59
2024/02/05 12:49:18;;;;;;;1.58;0.20;;;12.80;99.90;;;;;;5098300;28;20436;-59
2024/02/05 12:51:45;;;;;;;0.60;0.30;;;12.80;99.90;;;;;;5097600;28;20477;-59
2024/02/05 12:54:13;;;;;;;0.50;0.20;;;12.80;99.90;;;;;;5091324;28;20509;-58
2024/02/05 12:56:40;;;;;;;1.10;0.30;;;12.80;99.90;;;;;;5107449;28;20434;-59
2024/02/05 13:02:30;;;;;;;0.40;0.20;;;12.90;99.90;;;;;;5073390;28;20483;-59
2024/02/05 13:04:57;;;;;;;0.70;0.20;;;12.80;99.90;;;;;;5076336;28;20455;-59